Terminal Aerodrome Forecast
Issued by NWS

Home | Current Version | Previous Version | Text Only | Print | Product List | Glossary On
Versions: 1 2 3 4 5 6 7 8 9 10 11 12
120
FTUS45 KRIW 221727
TAFBPI
TAF
KBPI 221727Z 2218/2318 30009KT P6SM BKN070
     FM222200 VRB05KT P6SM VCSH BKN050
     FM230600 36010KT 2SM -SN OVC025
     FM231200 34010G16KT 5SM -SN OVC030=

USA.gov is the U.S. government's official web portal to all federal, state and local government web resources and services.